Time;durP1;ratioP1;P1;durP2;ratioP2;P2;SDS_P1;SDS_P2;PMS_P1;PMS_P2;Temp;Humidity;BMP_temperature;BMP_pressure;BME280_temperature;BME280_humidity;BME280_pressure;Samples;Min_cycle;Max_cycle;Signal;HPM_P1;HPM_P2
2022/06/13 00:01:15;;;;;;;12.05;3.78;;;;;;;14.60;100.00;101759.66;10222788;28;20076;-70
2022/06/13 00:06:12;;;;;;;21.00;5.32;;;;;;;14.55;100.00;101768.84;10219171;28;20383;-70
2022/06/13 00:11:13;;;;;;;16.10;3.78;;;;;;;14.59;100.00;101758.00;10220403;28;20533;-70
2022/06/13 00:16:11;;;;;;;11.15;3.05;;;;;;;14.55;100.00;101751.50;10220303;28;20557;-70
2022/06/13 00:21:08;;;;;;;23.67;4.13;;;;;;;14.54;100.00;101745.22;10226444;28;20111;-70
2022/06/13 00:26:04;;;;;;;13.27;3.58;;;;;;;14.46;100.00;101738.53;10222654;28;20209;-71
2022/06/13 00:31:02;;;;;;;18.20;3.90;;;;;;;14.47;100.00;101744.84;10226588;28;20577;-71
2022/06/13 00:35:59;;;;;;;13.95;3.55;;;;;;;14.41;100.00;101735.94;10224856;28;20045;-70
2022/06/13 00:40:55;;;;;;;18.05;3.33;;;;;;;14.48;100.00;101736.28;10225995;28;20103;-70
2022/06/13 00:45:52;;;;;;;16.40;3.78;;;;;;;14.38;100.00;101736.53;10226313;28;20053;-71
2022/06/13 00:50:52;;;;;;;23.52;4.68;;;;;;;14.35;100.00;101731.69;10226871;28;20567;-70
2022/06/13 00:55:53;;;;;;;17.27;4.15;;;;;;;14.18;100.00;101731.59;10229071;28;20198;-70
2022/06/13 01:00:54;;;;;;;12.13;3.40;;;;;;;14.23;100.00;101728.75;10225738;28;20073;-70
2022/06/13 01:05:53;;;;;;;18.23;5.40;;;;;;;14.19;100.00;101733.25;10228070;28;20073;-70
2022/06/13 01:11:16;;;;;;;17.15;4.28;;;;;;;14.07;100.00;101737.41;10227304;28;20083;-70
2022/06/13 01:16:31;;;;;;;15.68;4.22;;;;;;;14.07;100.00;101737.41;10224747;28;20072;-70
2022/06/13 01:21:52;;;;;;;15.23;4.03;;;;;;;13.94;100.00;101748.50;10230988;28;20053;-70
2022/06/13 01:27:20;;;;;;;15.20;4.45;;;;;;;13.92;100.00;101735.06;10224142;28;20141;-70
2022/06/13 01:32:32;;;;;;;16.02;3.80;;;;;;;14.05;100.00;101736.09;10230941;28;20049;-70
2022/06/13 01:37:46;;;;;;;18.95;4.45;;;;;;;13.94;100.00;101738.31;10219921;28;20505;-70
2022/06/13 01:42:48;;;;;;;15.32;4.60;;;;;;;13.94;100.00;101721.81;10218625;28;20077;-70
2022/06/13 01:48:09;;;;;;;16.93;3.90;;;;;;;13.93;100.00;101725.69;10215343;28;20084;-70
2022/06/13 01:53:26;;;;;;;16.55;4.13;;;;;;;13.89;100.00;101713.69;10227829;28;20049;-70
2022/06/13 01:58:31;;;;;;;14.57;4.15;;;;;;;13.86;100.00;101719.84;10227150;28;20575;-71
2022/06/13 02:03:47;;;;;;;21.08;4.55;;;;;;;13.84;100.00;101711.09;10227435;28;20453;-70
2022/06/13 02:08:51;;;;;;;15.18;4.50;;;;;;;13.84;100.00;101711.09;10224394;28;20099;-70
2022/06/13 02:14:00;;;;;;;14.90;4.05;;;;;;;13.77;100.00;101710.75;10222117;28;20092;-70
2022/06/13 02:19:03;;;;;;;13.23;4.65;;;;;;;13.83;100.00;101703.97;10215519;28;20073;-70
2022/06/13 02:24:02;;;;;;;16.88;3.92;;;;;;;13.82;100.00;101691.34;10223698;28;20559;-70
2022/06/13 02:29:16;;;;;;;20.20;4.75;;;;;;;13.72;100.00;101706.19;10226514;28;20072;-70
2022/06/13 02:34:19;;;;;;;19.90;5.82;;;;;;;13.64;100.00;101713.22;10220796;28;20084;-71
2022/06/13 02:39:27;;;;;;;16.83;4.30;;;;;;;13.64;100.00;101715.97;10223364;28;20544;-70
2022/06/13 02:44:32;;;;;;;14.30;4.38;;;;;;;13.67;100.00;101715.38;10222368;28;20041;-70
2022/06/13 02:49:37;;;;;;;17.98;4.57;;;;;;;13.73;100.00;101710.53;10222250;28;20045;-70
2022/06/13 02:54:39;;;;;;;17.85;4.28;;;;;;;13.75;100.00;101721.22;10219289;28;20041;-70
2022/06/13 03:00:02;;;;;;;15.90;4.43;;;;;;;13.73;100.00;101713.28;10222760;28;20073;-70
2022/06/13 03:05:30;;;;;;;15.77;5.32;;;;;;;13.77;100.00;101706.03;10218174;28;20079;-70
2022/06/13 03:10:39;;;;;;;17.15;5.00;;;;;;;13.71;100.00;101695.50;10198506;28;20057;-70
2022/06/13 03:15:49;;;;;;;14.30;4.75;;;;;;;13.77;100.00;101677.75;10224739;28;20463;-70
2022/06/13 03:20:56;;;;;;;18.00;4.82;;;;;;;13.70;100.00;101660.91;10224288;28;20041;-70
2022/06/13 03:26:07;;;;;;;21.60;5.63;;;;;;;13.54;100.00;101675.03;10224645;28;20049;-70
2022/06/13 03:31:11;;;;;;;15.02;4.13;;;;;;;13.58;100.00;101676.03;10226829;28;20049;-70
2022/06/13 03:36:15;;;;;;;13.90;4.00;;;;;;;13.57;100.00;101674.41;10218077;28;20042;-70
2022/06/13 03:41:16;;;;;;;16.15;4.35;;;;;;;13.58;100.00;101691.72;10211335;28;20073;-70
2022/06/13 03:46:24;;;;;;;15.20;4.65;;;;;;;13.71;100.00;101695.50;10221886;28;20072;-68
2022/06/13 03:51:27;;;;;;;11.95;4.32;;;;;;;13.67;100.00;101701.63;10216178;28;20048;-68
2022/06/13 03:56:30;;;;;;;;;;;;;;;13.68;100.00;101696.94;10226412;28;20084;-68
2022/06/13 04:01:31;;;;;;;17.35;4.65;;;;;;;13.62;100.00;101692.69;10219624;28;20051;-68
2022/06/13 04:06:36;;;;;;;17.77;4.00;;;;;;;13.56;100.00;101705.75;10212504;28;20071;-68
2022/06/13 04:11:40;;;;;;;19.20;5.22;;;;;;;13.81;100.00;101700.75;10211786;28;20077;-68
2022/06/13 04:16:56;;;;;;;15.38;4.35;;;;;;;13.91;100.00;101711.44;10207784;28;20069;-68
2022/06/13 04:21:55;;;;;;;9.93;4.13;;;;;;;13.98;100.00;101711.81;10217690;28;20125;-67
2022/06/13 04:27:01;;;;;;;15.40;4.15;;;;;;;13.98;100.00;101703.56;10210375;28;20088;-68
2022/06/13 04:32:02;;;;;;;17.40;5.00;;;;;;;13.84;100.00;101706.41;10225564;28;20037;-68
2022/06/13 04:37:06;;;;;;;19.40;4.95;;;;;;;13.53;100.00;101711.91;10219053;28;20042;-68
2022/06/13 04:42:07;;;;;;;17.90;5.05;;;;;;;13.37;100.00;101713.41;10206031;28;20124;-68
2022/06/13 04:47:05;;;;;;;19.10;5.38;;;;;;;13.22;100.00;101709.84;10209621;28;20132;-67
2022/06/13 04:52:08;;;;;;;22.45;5.80;;;;;;;13.16;100.00;101702.88;10209065;28;20045;-69
2022/06/13 04:57:06;;;;;;;15.75;5.22;;;;;;;13.07;100.00;101710.22;10202278;28;20088;-70
2022/06/13 05:02:03;;;;;;;13.43;5.47;;;;;;;12.92;100.00;101716.06;10210752;28;20073;-68
2022/06/13 05:07:09;;;;;;;14.68;5.90;;;;;;;12.99;100.00;101714.50;10212701;28;20045;-70
2022/06/13 05:12:15;;;;;;;17.77;5.25;;;;;;;13.14;100.00;101710.63;10229113;28;20096;-70
2022/06/13 05:17:24;;;;;;;14.90;5.47;;;;;;;13.24;100.00;101704.88;10230921;28;20091;-70
2022/06/13 05:22:55;;;;;;;13.13;4.72;;;;;;;13.43;100.00;101706.63;10227796;28;20076;-71
2022/06/13 05:27:53;;;;;;;18.75;5.40;;;;;;;13.48;100.00;101703.75;10226145;28;20037;-70
2022/06/13 05:32:50;;;;;;;21.40;6.05;;;;;;;13.54;100.00;101702.50;10227638;28;20136;-71
2022/06/13 05:37:47;;;;;;;14.73;4.82;;;;;;;13.70;100.00;101702.94;10226738;28;20033;-70
2022/06/13 05:42:45;;;;;;;21.10;5.68;;;;;;;13.79;100.00;101698.28;10219250;28;20045;-70
2022/06/13 05:47:44;;;;;;;18.73;5.60;;;;;;;13.90;100.00;101698.81;10223220;28;20145;-70
2022/06/13 05:52:41;;;;;;;19.35;4.95;;;;;;;13.76;100.00;101698.09;10226112;28;20085;-70
2022/06/13 05:57:38;;;;;;;15.30;5.07;;;;;;;14.04;100.00;101693.22;10226717;28;20065;-69
2022/06/13 06:02:35;;;;;;;14.73;4.38;;;;;;;14.19;100.00;101694.75;10226174;28;20045;-69
2022/06/13 06:07:33;;;;;;;12.75;4.20;;;;;;;14.16;100.00;101701.69;10221941;28;20041;-69
2022/06/13 06:12:29;;;;;;;13.05;4.00;;;;;;;14.19;100.00;101703.00;10221110;28;20077;-69
2022/06/13 06:17:26;;;;;;;16.15;3.97;;;;;;;14.22;100.00;101696.84;10214275;28;20050;-70
2022/06/13 06:22:22;;;;;;;12.98;3.92;;;;;;;14.36;100.00;101693.97;10221793;28;20050;-69
2022/06/13 06:27:19;;;;;;;18.13;4.97;;;;;;;14.44;100.00;101699.50;10225381;28;20045;-70
2022/06/13 06:32:15;;;;;;;12.27;3.60;;;;;;;14.36;100.00;101705.78;10227710;28;20072;-69
2022/06/13 06:37:12;;;;;;;20.30;3.90;;;;;;;14.62;100.00;101705.91;10225363;28;20093;-70
2022/06/13 06:42:09;;;;;;;11.35;3.03;;;;;;;14.77;100.00;101710.13;10226090;28;20632;-69
2022/06/13 06:47:06;;;;;;;13.77;3.15;;;;;;;14.86;100.00;101719.19;10222988;28;20571;-70
2022/06/13 06:52:06;;;;;;;14.23;4.85;;;;;;;14.94;100.00;101704.63;10219352;28;20525;-70
2022/06/13 07:02:20;;;;;;;18.30;3.67;;;;;;;15.18;100.00;101697.81;10223309;28;20099;-70
2022/06/13 07:07:17;;;;;;;13.07;2.83;;;;;;;15.26;100.00;101710.78;10217376;28;20231;-70
2022/06/13 07:12:14;;;;;;;9.68;2.67;;;;;;;15.26;100.00;101691.47;10228018;28;20123;-70
2022/06/13 07:17:11;;;;;;;10.07;2.67;;;;;;;15.40;100.00;101696.00;10220237;28;20075;-70
2022/06/13 07:22:07;;;;;;;9.63;2.88;;;;;;;15.43;100.00;101692.59;10226811;28;20049;-70
2022/06/13 07:27:05;;;;;;;13.73;3.58;;;;;;;15.28;100.00;101716.78;10220167;28;20099;-70
2022/06/13 07:32:08;;;;;;;12.73;3.50;;;;;;;14.99;100.00;101731.19;10227539;28;20049;-69
2022/06/13 07:37:07;;;;;;;10.18;3.38;;;;;;;14.75;100.00;101728.91;10222584;28;20561;-69
2022/06/13 07:42:05;;;;;;;16.25;3.00;;;;;;;14.46;100.00;101732.22;10213833;28;20536;-69
2022/06/13 07:47:01;;;;;;;13.13;2.90;;;;;;;14.02;100.00;101756.78;10220052;28;20157;-69
2022/06/13 07:51:58;;;;;;;7.60;1.70;;;;;;;13.54;100.00;101738.22;10218865;28;20486;-69
2022/06/13 07:56:55;;;;;;;10.20;1.85;;;;;;;12.98;100.00;101742.28;10222284;28;20453;-69
2022/06/13 08:01:53;;;;;;;8.20;1.88;;;;;;;12.96;100.00;101758.25;10224001;28;20564;-69
2022/06/13 08:06:50;;;;;;;6.93;1.73;;;;;;;12.80;100.00;101771.50;10223708;28;20157;-69
2022/06/13 08:11:50;;;;;;;5.70;2.25;;;;;;;12.69;100.00;101765.41;10226379;28;20085;-69
2022/06/13 08:16:47;;;;;;;7.53;2.08;;;;;;;12.82;100.00;101774.75;10218093;28;20053;-69
2022/06/13 08:21:44;;;;;;;8.18;2.10;;;;;;;12.80;100.00;101782.47;10222363;28;20390;-69
2022/06/13 08:26:41;;;;;;;7.22;2.20;;;;;;;12.64;100.00;101795.69;10219048;28;20497;-69
2022/06/13 08:31:38;;;;;;;6.18;1.77;;;;;;;12.60;100.00;101805.63;10221667;28;20129;-69
2022/06/13 08:36:34;;;;;;;4.40;1.60;;;;;;;12.47;100.00;101811.97;10219254;28;20052;-69
2022/06/13 08:41:41;;;;;;;5.90;1.75;;;;;;;12.50;100.00;101808.59;10218494;28;20137;-69
2022/06/13 08:46:46;;;;;;;3.50;1.27;;;;;;;12.47;100.00;101790.00;10227635;28;20069;-69
2022/06/13 08:51:46;;;;;;;5.28;1.50;;;;;;;12.55;100.00;101781.06;10221940;28;20053;-69
2022/06/13 08:56:44;;;;;;;4.88;1.20;;;;;;;12.99;100.00;101779.59;10232191;28;20076;-69
2022/06/13 09:01:42;;;;;;;5.22;1.50;;;;;;;12.98;100.00;101784.28;10227648;28;20041;-69
2022/06/13 09:07:17;;;;;;;6.90;1.90;;;;;;;13.24;100.00;101787.25;10218700;28;20128;-70
2022/06/13 09:12:22;;;;;;;5.85;1.33;;;;;;;13.26;100.00;101796.00;10231377;28;20091;-69
2022/06/13 09:17:31;;;;;;;7.40;1.15;;;;;;;13.52;100.00;101769.91;10220052;28;20049;-70
2022/06/13 09:22:37;;;;;;;4.00;0.90;;;;;;;13.75;100.00;101778.94;10228196;28;20060;-70
2022/06/13 09:27:39;;;;;;;4.57;0.70;;;;;;;13.84;100.00;101766.88;10222139;28;20113;-70
2022/06/13 09:32:44;;;;;;;5.97;0.85;;;;;;;14.08;100.00;101772.00;10226569;28;20053;-70
2022/06/13 09:37:53;;;;;;;2.72;0.85;;;;;;;14.46;100.00;101771.53;10213248;28;20497;-70
2022/06/13 09:43:02;;;;;;;2.75;0.90;;;;;;;14.48;100.00;101769.28;10221946;28;20527;-70
2022/06/13 09:48:04;;;;;;;2.33;0.70;;;;;;;14.78;100.00;101777.78;10225878;28;20376;-70
2022/06/13 09:53:21;;;;;;;3.97;0.60;;;;;;;15.08;100.00;101791.78;10218441;28;20049;-69
2022/06/13 09:58:37;;;;;;;3.03;0.50;;;;;;;15.01;100.00;101780.44;10227246;28;20037;-69
2022/06/13 10:03:45;;;;;;;2.63;0.55;;;;;;;15.38;100.00;101794.72;10221607;28;20145;-69
2022/06/13 10:09:14;;;;;;;3.85;0.80;;;;;;;15.62;100.00;101772.16;10219768;28;20041;-69
2022/06/13 10:14:35;;;;;;;3.45;0.85;;;;;;;16.39;100.00;101773.13;10226925;28;20053;-69
2022/06/13 10:19:37;;;;;;;2.88;0.50;;;;;;;17.32;100.00;101774.00;10223662;28;20131;-69
2022/06/13 10:25:07;;;;;;;3.75;0.90;;;;;;;18.36;100.00;101774.09;10214998;28;20424;-69
2022/06/13 10:30:13;;;;;;;4.32;0.85;;;;;;;18.76;100.00;101793.59;10216476;28;20077;-69
2022/06/13 10:35:16;;;;;;;1.77;0.57;;;;;;;19.12;97.50;101773.34;10222892;28;20049;-69
2022/06/13 10:40:15;;;;;;;2.25;0.45;;;;;;;19.59;96.01;101779.41;10219409;28;20085;-69
2022/06/13 10:45:14;;;;;;;1.83;0.60;;;;;;;18.80;91.15;101774.31;10211914;28;20077;-69
2022/06/13 10:50:17;;;;;;;2.03;0.50;;;;;;;19.59;85.15;101768.31;10223440;28;20049;-69
2022/06/13 10:55:19;;;;;;;1.83;0.60;;;;;;;21.05;82.72;101748.13;10212050;28;20561;-69
2022/06/13 11:00:25;;;;;;;2.47;0.30;;;;;;;20.91;68.62;101759.75;10228671;28;20512;-69
2022/06/13 11:05:25;;;;;;;2.17;0.40;;;;;;;20.42;69.64;101762.94;10221049;28;20509;-69
2022/06/13 11:10:31;;;;;;;3.38;0.50;;;;;;;20.94;67.77;101753.47;10225580;28;20252;-69
2022/06/13 11:27:39;;;;;;;7.65;1.48;;;;;;;20.01;77.06;101763.16;10222885;28;20045;-69
2022/06/13 11:31:26;;;;;;;3.50;0.65;;;;;;;20.95;72.59;101757.84;10218819;28;20109;-69
2022/06/13 11:36:28;;;;;;;2.50;0.88;;;;;;;21.34;61.65;101755.09;10213383;28;20102;-70
2022/06/13 11:41:45;;;;;;;4.57;0.50;;;;;;;20.98;58.89;101774.63;10216751;28;20103;-70
2022/06/13 11:46:53;;;;;;;3.60;0.57;;;;;;;19.12;67.58;101784.44;10217530;28;20148;-69
2022/06/13 11:51:55;;;;;;;2.30;0.40;;;;;;;18.45;72.19;101783.91;10221088;28;20084;-70
2022/06/13 11:57:18;;;;;;;6.83;0.70;;;;;;;17.86;82.96;101790.59;10219167;28;20123;-70
2022/06/13 12:02:21;;;;;;;3.90;0.97;;;;;;;18.84;84.22;101783.56;10207633;28;20045;-69
2022/06/13 12:07:29;;;;;;;3.60;0.68;;;;;;;19.49;73.10;101795.38;10217426;28;20501;-70
2022/06/13 12:12:42;;;;;;;4.50;0.50;;;;;;;19.75;59.85;101783.09;10215625;28;20041;-70
2022/06/13 12:17:48;;;;;;;5.50;0.50;;;;;;;19.30;61.88;101800.78;10218802;28;20512;-70
2022/06/13 12:22:59;;;;;;;4.25;0.88;;;;;;;20.14;63.32;101777.75;10221677;28;20191;-69
2022/06/13 12:28:11;;;;;;;2.60;0.45;;;;;;;20.18;62.61;101778.63;10225688;28;20096;-69
2022/06/13 12:33:23;;;;;;;7.27;0.90;;;;;;;19.86;58.76;101789.69;10223532;28;20205;-69
2022/06/13 12:38:50;;;;;;;2.42;0.60;;;;;;;18.96;65.77;101786.31;10220173;28;20077;-70
2022/06/13 12:43:56;;;;;;;2.13;0.38;;;;;;;18.74;69.14;101792.31;10226825;28;20088;-70
2022/06/13 12:49:05;;;;;;;5.18;0.80;;;;;;;18.84;71.07;101789.09;10232389;28;20037;-70
2022/06/13 12:54:43;;;;;;;3.38;0.60;;;;;;;18.88;62.23;101787.25;10225244;28;20136;-70
2022/06/13 13:00:03;;;;;;;5.32;0.65;;;;;;;19.28;66.25;101805.88;10224578;28;20056;-70
2022/06/13 13:05:16;;;;;;;3.17;0.45;;;;;;;19.67;64.98;101808.97;10222577;28;20099;-70
2022/06/13 13:10:27;;;;;;;3.83;0.70;;;;;;;19.51;59.74;101811.69;10221897;28;20184;-69
2022/06/13 13:15:43;;;;;;;4.07;0.68;;;;;;;19.46;65.43;101804.44;10224377;28;20069;-69
2022/06/13 13:20:49;;;;;;;4.03;0.77;;;;;;;19.25;74.72;101809.34;10228928;28;20068;-69
2022/06/13 13:26:21;;;;;;;3.53;0.80;;;;;;;18.89;65.52;101835.97;10226230;28;20092;-70
2022/06/13 13:31:35;;;;;;;3.55;0.60;;;;;;;18.75;65.57;101816.09;10224060;28;20089;-70
2022/06/13 13:37:02;;;;;;;2.90;0.80;;;;;;;18.40;72.92;101822.88;10215288;28;20045;-70
2022/06/13 13:42:12;;;;;;;5.03;1.15;;;;;;;18.70;76.12;101822.66;10225803;28;20041;-70
2022/06/13 13:47:13;;;;;;;5.78;0.93;;;;;;;19.08;77.50;101816.78;10228148;28;20069;-70
2022/06/13 13:52:34;;;;;;;6.22;0.95;;;;;;;19.10;68.72;101820.00;10221272;28;20472;-69
2022/06/13 13:57:39;;;;;;;1.50;0.32;;;;;;;18.64;64.24;101835.94;10223868;28;20091;-69
2022/06/13 14:03:03;;;;;;;3.85;0.65;;;;;;;18.15;70.26;101841.44;10219423;28;20501;-69
2022/06/13 14:08:14;;;;;;;4.45;0.47;;;;;;;18.39;73.37;101846.19;10216646;28;20157;-69
2022/06/13 14:13:16;;;;;;;3.97;0.52;;;;;;;18.56;68.25;101834.09;10220778;28;20472;-69
2022/06/13 14:18:25;;;;;;;4.95;0.50;;;;;;;19.09;71.60;101853.63;10216366;28;20077;-69
2022/06/13 14:23:31;;;;;;;2.33;0.45;;;;;;;18.37;67.97;101848.50;10219279;28;20058;-69
2022/06/13 14:28:46;;;;;;;4.20;0.90;;;;;;;18.54;73.66;101869.63;10208257;28;20053;-69
2022/06/13 14:39:39;;;;;;;3.30;0.43;;;;;;;18.86;85.97;101850.50;10204964;28;20038;-69
2022/06/13 14:45:03;;;;;;;4.40;0.85;;;;;;;19.09;81.49;101857.19;10199925;28;20931;-69
2022/06/13 14:50:00;;;;;;;4.35;0.70;;;;;;;19.28;66.30;101855.78;10203319;28;20473;-71
2022/06/13 14:55:03;;;;;;;4.30;0.70;;;;;;;19.65;60.80;101861.22;10207889;28;20052;-69
2022/06/13 15:00:19;;;;;;;5.95;0.65;;;;;;;19.49;62.04;101867.50;10216570;28;20497;-69
2022/06/13 15:05:16;;;;;;;3.75;0.93;;;;;;;19.59;61.89;101868.16;10202755;28;20604;-70
2022/06/13 15:10:22;;;;;;;6.00;1.02;;;;;;;18.84;65.26;101866.69;10208164;28;20131;-70
2022/06/13 15:15:30;;;;;;;5.93;0.95;;;;;;;19.07;70.82;101870.59;10197930;28;20053;-70
2022/06/13 15:20:31;;;;;;;6.00;1.13;;;;;;;19.10;73.63;101875.47;10215128;28;21305;-70
2022/06/13 15:25:43;;;;;;;6.75;1.38;;;;;;;19.37;73.86;101867.53;10208493;28;20048;-69
2022/06/13 15:30:46;;;;;;;4.57;1.00;;;;;;;19.69;66.48;101867.72;10204731;28;20073;-69
2022/06/13 15:35:45;;;;;;;4.57;0.80;;;;;;;19.24;69.39;101865.94;10190672;28;20088;-69
2022/06/13 15:40:43;;;;;;;10.10;1.85;;;;;;;18.32;82.40;101879.16;10191388;28;20424;-68
2022/06/13 15:45:39;;;;;;;10.32;1.73;;;;;;;18.04;89.10;101878.97;10190828;28;20308;-69
2022/06/13 15:50:36;;;;;;;9.35;1.60;;;;;;;17.95;92.33;101869.94;10196721;28;20069;-69
2022/06/13 15:55:48;;;;;;;8.50;2.03;;;;;;;18.59;84.30;101883.28;10203374;28;20141;-68
2022/06/13 16:00:45;;;;;;;7.50;1.30;;;;;;;18.24;80.58;101880.91;10220489;28;20133;-69
2022/06/13 16:05:42;;;;;;;5.38;1.08;;;;;;;17.85;88.13;101898.84;10220937;28;20538;-69
2022/06/13 16:10:44;;;;;;;10.98;1.20;;;;;;;17.57;92.08;101904.09;10221820;28;20054;-69
2022/06/13 16:15:44;;;;;;;10.98;2.00;;;;;;;17.42;90.47;101895.22;10201028;28;20073;-68
2022/06/13 16:20:45;;;;;;;5.35;1.40;;;;;;;18.59;81.94;101916.50;10205508;28;20521;-68
2022/06/13 16:25:44;;;;;;;6.20;1.20;;;;;;;19.76;67.67;101906.78;10205676;28;20053;-68
2022/06/13 16:30:44;;;;;;;6.43;0.80;;;;;;;19.97;59.15;101918.47;10202175;28;20128;-67
2022/06/13 16:35:45;;;;;;;7.10;1.30;;;;;;;20.86;57.67;101919.25;10208105;28;20046;-68
2022/06/13 16:40:49;;;;;;;6.47;1.33;;;;;;;20.52;57.59;101916.00;10219109;28;20049;-67
2022/06/13 16:45:47;;;;;;;7.38;1.75;;;;;;;20.41;54.44;101925.22;10207570;28;20448;-68
2022/06/13 16:50:43;;;;;;;6.40;1.40;;;;;;;20.70;52.65;101916.50;10208443;28;20069;-69
2022/06/13 16:55:49;;;;;;;5.35;1.00;;;;;;;21.58;50.58;101932.91;10204877;28;20076;-68
2022/06/13 17:01:00;;;;;;;4.30;1.15;;;;;;;21.58;46.21;101949.63;10205076;28;20053;-67
2022/06/13 17:05:58;;;;;;;6.43;1.10;;;;;;;21.99;41.30;101938.13;10221324;28;20045;-68
2022/06/13 17:10:59;;;;;;;5.07;1.27;;;;;;;21.57;42.61;101941.63;10215644;28;20091;-67
2022/06/13 17:15:57;;;;;;;8.45;1.40;;;;;;;20.48;45.96;101942.09;10213496;28;20053;-68
2022/06/13 17:20:56;;;;;;;4.22;1.30;;;;;;;20.02;46.58;101955.47;10207286;28;20053;-70
2022/06/13 17:36:30;;;;;;;8.60;1.52;;;;;;;20.57;53.68;101962.22;10211921;28;20045;-69
2022/06/13 17:41:27;;;;;;;4.10;0.90;;;;;;;21.23;48.48;101964.28;10214654;28;20080;-69
2022/06/13 17:46:23;;;;;;;9.40;1.88;;;;;;;21.66;47.88;101972.03;10214186;28;20069;-69
2022/06/13 17:51:20;;;;;;;5.78;1.50;;;;;;;20.95;52.67;101977.47;10226683;28;20464;-70
2022/06/13 17:56:17;;;;;;;8.18;2.20;;;;;;;20.14;52.78;101977.63;10216947;28;20041;-70
2022/06/13 18:01:17;;;;;;;5.03;1.48;;;;;;;19.87;53.18;101988.38;10215707;28;20464;-69
2022/06/13 18:06:13;;;;;;;7.80;2.42;;;;;;;19.09;57.69;101984.69;10221730;28;20468;-70
2022/06/13 18:11:10;;;;;;;9.23;1.65;;;;;;;18.20;73.43;101993.44;10223758;28;20053;-69
2022/06/13 18:16:09;;;;;;;6.38;1.77;;;;;;;17.91;79.77;101990.75;10218440;28;20573;-69
2022/06/13 18:21:07;;;;;;;8.55;2.00;;;;;;;17.95;83.89;101997.22;10202999;28;20124;-69
2022/06/13 18:26:06;;;;;;;9.45;2.00;;;;;;;17.49;85.82;101998.97;10210780;28;20049;-69
2022/06/13 18:31:04;;;;;;;10.20;2.05;;;;;;;17.31;85.42;102001.81;10208926;28;20589;-69
2022/06/13 18:36:01;;;;;;;9.68;1.77;;;;;;;17.00;83.13;102002.91;10212130;28;20073;-70
2022/06/13 18:41:01;;;;;;;6.07;1.50;;;;;;;16.81;84.79;102005.25;10190447;28;20045;-70
2022/06/13 18:45:58;;;;;;;6.82;1.13;;;;;;;16.49;87.13;102015.66;10200682;28;20057;-70
2022/06/13 18:50:56;;;;;;;6.05;1.17;;;;;;;16.29;89.71;102016.31;10215878;28;20047;-70
2022/06/13 18:55:56;;;;;;;6.65;1.02;;;;;;;16.12;93.75;102014.38;10201832;28;20429;-69
2022/06/13 19:00:53;;;;;;;6.65;1.10;;;;;;;15.80;96.50;102012.88;10204776;28;20111;-70
2022/06/13 19:05:52;;;;;;;13.02;1.95;;;;;;;16.01;96.69;102022.16;10203689;28;20046;-69
2022/06/13 19:10:53;;;;;;;9.05;1.90;;;;;;;15.71;99.95;102029.41;10205386;28;20544;-70
2022/06/13 19:15:50;;;;;;;13.50;1.85;;;;;;;15.69;100.00;102032.47;10205300;28;20057;-69
2022/06/13 19:20:47;;;;;;;7.90;1.63;;;;;;;15.45;100.00;102026.56;10198265;28;20685;-69
2022/06/13 19:25:48;;;;;;;9.55;1.83;;;;;;;15.39;100.00;102030.56;10209016;28;20540;-70
2022/06/13 19:30:46;;;;;;;7.10;1.80;;;;;;;15.31;100.00;102038.50;10200331;28;20070;-70
2022/06/13 19:35:47;;;;;;;7.30;2.03;;;;;;;15.20;100.00;102048.19;10207647;28;20068;-70
2022/06/13 19:40:50;;;;;;;8.98;1.65;;;;;;;15.18;100.00;102052.38;10209456;28;20541;-71
2022/06/13 19:45:47;;;;;;;10.65;1.13;;;;;;;15.16;100.00;102058.22;10201401;28;20096;-70
2022/06/13 19:50:44;;;;;;;10.20;1.20;;;;;;;15.08;100.00;102061.72;10202798;28;20476;-70
2022/06/13 19:55:47;;;;;;;7.57;1.80;;;;;;;14.91;100.00;102068.75;10203632;28;20470;-70
2022/06/13 20:00:46;;;;;;;10.02;1.35;;;;;;;14.89;100.00;102079.25;10213610;28;20057;-70
2022/06/13 20:11:01;;;;;;;5.55;1.20;;;;;;;14.73;100.00;102080.78;10215520;28;20049;-67
2022/06/13 20:16:01;;;;;;;8.70;1.38;;;;;;;14.78;100.00;102074.31;10216175;28;20128;-69
2022/06/13 20:20:59;;;;;;;7.50;1.30;;;;;;;14.77;100.00;102073.53;10200601;28;20140;-70
2022/06/13 20:25:55;;;;;;;7.72;1.23;;;;;;;14.71;100.00;102080.28;10201694;28;20510;-65
2022/06/13 20:30:56;;;;;;;7.03;1.33;;;;;;;14.57;100.00;102079.53;10200998;28;20156;-67
2022/06/13 20:35:53;;;;;;;5.90;1.15;;;;;;;14.45;100.00;102089.09;10203444;28;20042;-67
2022/06/13 20:40:50;;;;;;;8.68;1.58;;;;;;;14.40;100.00;102089.22;10203390;28;20046;-67
2022/06/13 20:45:47;;;;;;;4.55;1.00;;;;;;;14.19;100.00;102086.13;10202321;28;20096;-67
2022/06/13 20:50:48;;;;;;;5.10;0.90;;;;;;;14.15;100.00;102089.81;10211404;28;20152;-68
2022/06/13 20:55:45;;;;;;;9.25;1.70;;;;;;;13.94;100.00;102092.97;10204793;28;20049;-66
2022/06/13 21:00:41;;;;;;;8.55;1.20;;;;;;;13.95;100.00;102086.38;10206429;28;20763;-67
2022/06/13 21:05:40;;;;;;;7.18;1.63;;;;;;;13.90;100.00;102094.72;10223458;28;20148;-67
2022/06/13 21:10:39;;;;;;;7.47;1.13;;;;;;;13.87;100.00;102095.34;10226484;28;20049;-68
2022/06/13 21:15:39;;;;;;;8.85;1.25;;;;;;;13.75;100.00;102092.28;10226325;28;20053;-68
2022/06/13 21:20:40;;;;;;;5.20;1.27;;;;;;;13.74;100.00;102101.66;10217230;28;20107;-68
2022/06/13 21:25:38;;;;;;;6.80;1.52;;;;;;;13.62;100.00;102107.66;10228825;28;20552;-68
2022/06/13 21:30:39;;;;;;;10.27;1.65;;;;;;;13.54;100.00;102103.69;10214035;28;20046;-68
2022/06/13 21:35:36;;;;;;;8.48;1.85;;;;;;;13.47;100.00;102097.78;10221339;28;20045;-66
2022/06/13 21:40:37;;;;;;;7.80;1.45;;;;;;;13.34;100.00;102106.81;10222449;28;20045;-66
2022/06/13 21:45:34;;;;;;;8.70;1.77;;;;;;;13.37;100.00;102100.72;10219770;28;20041;-68
2022/06/13 21:50:33;;;;;;;7.45;1.30;;;;;;;13.34;100.00;102095.81;10222305;28;20072;-69
2022/06/13 21:55:29;;;;;;;11.23;2.30;;;;;;;13.25;100.00;102104.75;10223945;28;20065;-69
2022/06/13 22:00:27;;;;;;;10.23;1.38;;;;;;;13.19;100.00;102105.94;10217851;28;20080;-67
2022/06/13 22:05:25;;;;;;;7.32;1.25;;;;;;;13.14;100.00;102100.53;10214143;28;20049;-68
2022/06/13 22:10:22;;;;;;;6.80;1.33;;;;;;;13.20;100.00;102099.31;10221602;28;20057;-70
2022/06/13 22:15:19;;;;;;;6.30;1.15;;;;;;;13.15;100.00;102096.66;10225979;28;20127;-71
2022/06/13 22:20:15;;;;;;;14.60;1.70;;;;;;;13.02;100.00;102102.97;10220130;28;20133;-68
2022/06/13 22:25:13;;;;;;;10.13;1.52;;;;;;;12.99;100.00;102112.59;10222458;28;20048;-68
2022/06/13 22:30:13;;;;;;;3.97;0.90;;;;;;;13.00;100.00;102113.41;10221972;28;20201;-68
2022/06/13 22:35:12;;;;;;;10.25;1.48;;;;;;;12.91;100.00;102112.47;10220173;28;20081;-68
2022/06/13 22:40:10;;;;;;;8.25;1.40;;;;;;;12.97;100.00;102111.25;10227098;28;20529;-68
2022/06/13 22:45:07;;;;;;;6.68;1.15;;;;;;;13.04;100.00;102106.19;10219163;28;20053;-68
2022/06/13 22:50:04;;;;;;;5.05;1.20;;;;;;;13.06;100.00;102103.97;10222349;28;20045;-69
2022/06/13 22:55:06;;;;;;;6.25;1.40;;;;;;;12.94;100.00;102109.13;10209959;28;20087;-69
2022/06/13 23:00:08;;;;;;;7.32;1.65;;;;;;;12.92;100.00;102103.09;10215930;28;20077;-69
2022/06/13 23:05:05;;;;;;;7.78;1.42;;;;;;;12.83;100.00;102106.56;10213446;28;21463;-68
2022/06/13 23:10:03;;;;;;;10.90;1.60;;;;;;;12.83;100.00;102106.56;10224036;28;20144;-64
2022/06/13 23:15:00;;;;;;;7.13;1.67;;;;;;;12.76;100.00;102100.59;10219050;28;20061;-70
2022/06/13 23:19:56;;;;;;;10.15;1.88;;;;;;;12.79;100.00;102100.03;10222861;28;20119;-70
2022/06/13 23:24:53;;;;;;;5.82;1.10;;;;;;;12.78;100.00;102103.88;10216446;28;20483;-70
2022/06/13 23:29:53;;;;;;;9.52;1.55;;;;;;;12.79;100.00;102100.03;10215706;28;20045;-69
2022/06/13 23:34:50;;;;;;;7.53;1.30;;;;;;;12.74;100.00;102113.00;10218340;28;20111;-69